createdAt,value
2023-03-27T00:00:20.376Z,89.16
2023-03-27T00:03:25.487Z,88.43
2023-03-27T00:06:28.410Z,88.76
2023-03-27T00:09:32.058Z,89.00
2023-03-27T00:12:36.368Z,88.01
2023-03-27T00:15:40.927Z,87.75
2023-03-27T00:18:45.198Z,87.84
2023-03-27T00:21:48.732Z,89.32
2023-03-27T00:24:51.935Z,89.33
2023-03-27T00:27:58.470Z,89.08
2023-03-27T00:31:01.741Z,89.57
2023-03-27T00:34:05.081Z,89.95
2023-03-27T00:37:07.965Z,89.63
2023-03-27T00:40:15.592Z,89.03
2023-03-27T00:43:26.258Z,88.40
2023-03-27T00:46:39.151Z,88.88
2023-03-27T00:49:41.922Z,88.11
2023-03-27T00:52:48.439Z,86.67
2023-03-27T00:55:54.205Z,87.00
2023-03-27T00:59:02.168Z,87.22
2023-03-27T01:02:06.147Z,87.60
2023-03-27T01:05:11.444Z,86.42
2023-03-27T01:08:15.531Z,86.74
2023-03-27T01:11:31.198Z,85.88
2023-03-27T01:14:41.550Z,85.60
2023-03-27T01:17:59.858Z,85.12
2023-03-27T01:21:47.837Z,85.31
2023-03-27T01:25:22.612Z,84.83
2023-03-27T01:28:42.621Z,84.58
2023-03-27T01:32:02.464Z,85.29
2023-03-27T01:35:30.022Z,85.09
2023-03-27T01:39:08.801Z,84.53
2023-03-27T01:42:21.446Z,83.98
2023-03-27T01:45:30.096Z,83.40
2023-03-27T01:48:40.949Z,83.81
2023-03-27T01:51:50.019Z,82.82
2023-03-27T01:54:58.378Z,82.53
2023-03-27T01:58:07.913Z,83.36
2023-03-27T02:01:12.451Z,83.46
2023-03-27T02:04:19.621Z,83.57
2023-03-27T02:07:28.100Z,84.62
2023-03-27T02:10:37.637Z,83.59
2023-03-27T02:13:46.033Z,82.90
2023-03-27T02:16:54.291Z,81.82
2023-03-27T02:20:02.506Z,80.18
2023-03-27T02:23:06.579Z,81.72
2023-03-27T02:26:12.497Z,80.77
2023-03-27T02:29:32.524Z,81.75
2023-03-27T02:32:46.271Z,81.35
2023-03-27T02:35:58.386Z,81.58
2023-03-27T02:39:08.764Z,81.56
2023-03-27T02:42:19.003Z,80.23
2023-03-27T02:45:29.700Z,80.35
2023-03-27T02:48:35.486Z,81.72
2023-03-27T02:51:43.657Z,80.34
2023-03-27T02:54:53.443Z,80.41
2023-03-27T02:58:00.700Z,81.01
2023-03-27T03:01:09.297Z,81.59
2023-03-27T03:04:18.723Z,80.35
2023-03-27T03:07:22.669Z,80.48
2023-03-27T03:10:26.007Z,80.33
2023-03-27T03:13:28.756Z,80.35
2023-03-27T03:16:33.418Z,81.39
2023-03-27T03:19:37.116Z,83.12
2023-03-27T03:22:40.256Z,82.62
2023-03-27T03:25:44.707Z,82.84
2023-03-27T03:29:00.050Z,82.42
2023-03-27T03:32:06.703Z,82.00
2023-03-27T03:35:10.039Z,81.33
2023-03-27T03:38:12.833Z,81.74
2023-03-27T03:41:15.690Z,80.84
2023-03-27T03:44:18.622Z,77.20
2023-03-27T03:47:23.511Z,77.80
2023-03-27T03:50:26.205Z,78.36
2023-03-27T03:53:28.938Z,79.24
2023-03-27T03:56:31.782Z,77.68
2023-03-27T03:59:34.627Z,77.42
2023-03-27T04:02:40.710Z,77.20
2023-03-27T04:05:43.897Z,78.21
2023-03-27T04:08:46.660Z,77.12
2023-03-27T04:11:49.339Z,74.78
2023-03-27T04:14:52.168Z,74.88
2023-03-27T04:17:57.765Z,74.48
2023-03-27T04:21:00.696Z,75.15
2023-03-27T04:24:03.413Z,74.65
2023-03-27T04:27:07.359Z,75.35
2023-03-27T04:30:14.083Z,75.00
2023-03-27T04:33:19.361Z,75.40
2023-03-27T04:36:22.611Z,74.23
2023-03-27T04:39:26.462Z,73.89
2023-03-27T04:42:29.279Z,72.19
2023-03-27T04:45:32.540Z,71.94
2023-03-27T04:48:39.069Z,73.30
2023-03-27T04:51:42.873Z,72.83
2023-03-27T04:54:46.601Z,71.43
2023-03-27T04:57:49.262Z,72.23
2023-03-27T05:00:55.678Z,71.17
2023-03-27T05:04:02.477Z,72.29
2023-03-27T05:07:05.697Z,72.89
2023-03-27T05:10:09.733Z,73.69
2023-03-27T05:13:13.033Z,72.34
2023-03-27T05:16:17.594Z,71.55
2023-03-27T05:19:22.194Z,71.48
2023-03-27T05:22:25.139Z,70.91
2023-03-27T05:25:28.584Z,70.91
2023-03-27T05:28:31.651Z,70.34
2023-03-27T05:31:34.513Z,69.35
2023-03-27T05:34:38.965Z,70.97
2023-03-27T05:37:41.677Z,70.60
2023-03-27T05:40:44.821Z,70.00
2023-03-27T05:43:49.032Z,70.36
2023-03-27T05:46:52.963Z,68.87
2023-03-27T05:49:57.117Z,69.68
2023-03-27T05:53:02.458Z,70.15
2023-03-27T05:56:05.738Z,68.35
2023-03-27T05:59:08.553Z,69.25
2023-03-27T06:02:11.985Z,70.10
2023-03-27T06:05:16.587Z,68.58
2023-03-27T06:08:19.414Z,69.19
2023-03-27T06:11:22.240Z,69.66
2023-03-27T06:14:25.044Z,69.85
2023-03-27T06:17:28.034Z,68.74
2023-03-27T06:20:32.877Z,69.73
2023-03-27T06:23:35.940Z,69.98
2023-03-27T06:26:39.257Z,70.23
2023-03-27T06:29:41.985Z,68.84
2023-03-27T06:32:46.322Z,70.17
2023-03-27T06:35:52.948Z,70.50
2023-03-27T06:38:56.694Z,70.30
2023-03-27T06:41:59.831Z,68.85
2023-03-27T06:45:02.951Z,68.73
2023-03-27T06:48:17.277Z,68.42
2023-03-27T06:51:26.885Z,68.75
2023-03-27T06:54:29.945Z,68.22
2023-03-27T06:57:32.801Z,67.11
2023-03-27T07:00:39.124Z,68.33
2023-03-27T07:03:42.119Z,66.55
2023-03-27T07:06:48.867Z,67.02
2023-03-27T07:09:52.670Z,65.49
2023-03-27T07:12:55.605Z,64.95
2023-03-27T07:15:58.571Z,65.71
2023-03-27T07:19:02.559Z,64.59
2023-03-27T07:22:07.124Z,65.01
2023-03-27T07:25:12.127Z,63.94
2023-03-27T07:28:16.749Z,64.05
2023-03-27T07:31:33.124Z,64.11
2023-03-27T07:34:39.824Z,65.43
2023-03-27T07:37:44.811Z,64.57
2023-03-27T07:40:47.701Z,62.76
2023-03-27T07:43:50.640Z,63.83
2023-03-27T07:46:53.514Z,63.67
2023-03-27T07:49:56.353Z,63.29
2023-03-27T07:53:00.913Z,63.75
2023-03-27T07:56:03.745Z,64.17
2023-03-27T07:59:06.726Z,62.75
2023-03-27T08:02:11.018Z,62.86
2023-03-27T08:05:13.888Z,60.93
2023-03-27T08:08:17.946Z,63.00
2023-03-27T08:11:30.375Z,61.50
2023-03-27T08:14:33.755Z,61.09
2023-03-27T08:17:36.932Z,62.39
2023-03-27T08:20:39.956Z,59.82
2023-03-27T08:23:44.109Z,59.69
2023-03-27T08:26:47.117Z,58.41
2023-03-27T08:29:49.823Z,60.16
2023-03-27T08:32:52.906Z,58.18
2023-03-27T08:35:57.723Z,60.95
2023-03-27T08:39:02.758Z,57.60
2023-03-27T08:42:09.397Z,54.96
2023-03-27T08:45:20.963Z,56.22
2023-03-27T08:48:28.228Z,55.77
2023-03-27T08:51:36.078Z,55.31
2023-03-27T08:54:41.036Z,55.70
2023-03-27T08:57:43.921Z,56.26
2023-03-27T09:00:51.942Z,52.89
2023-03-27T09:04:01.668Z,53.49
2023-03-27T09:07:11.049Z,53.18
2023-03-27T09:10:23.622Z,53.83
2023-03-27T09:13:31.955Z,53.40
2023-03-27T09:16:39.665Z,52.85
2023-03-27T09:19:48.131Z,48.86
2023-03-27T09:22:54.488Z,49.98
2023-03-27T09:26:01.840Z,50.72
2023-03-27T09:29:12.465Z,50.39
2023-03-27T09:32:23.729Z,49.93
2023-03-27T09:35:27.382Z,49.11
2023-03-27T09:38:36.097Z,49.00
2023-03-27T09:41:43.825Z,47.94
2023-03-27T09:44:50.810Z,46.59
2023-03-27T09:47:59.710Z,46.04
2023-03-27T09:51:05.297Z,47.32
2023-03-27T09:54:08.769Z,46.75
2023-03-27T09:57:13.406Z,46.96
2023-03-27T10:00:29.309Z,44.57
2023-03-27T10:03:38.959Z,42.54
2023-03-27T10:06:45.809Z,45.69
2023-03-27T10:10:05.645Z,46.44
2023-03-27T10:13:14.124Z,45.08
2023-03-27T10:16:18.773Z,45.87
2023-03-27T10:19:25.225Z,43.28
2023-03-27T10:22:32.283Z,46.06
2023-03-27T10:25:38.009Z,44.99
2023-03-27T10:28:45.420Z,43.54
2023-03-27T10:31:53.121Z,45.28
2023-03-27T10:34:58.636Z,40.46
2023-03-27T10:38:03.675Z,42.31
2023-03-27T10:41:14.296Z,44.80
2023-03-27T10:44:21.494Z,43.05
2023-03-27T10:47:26.463Z,42.31
2023-03-27T10:50:33.697Z,42.09
2023-03-27T10:53:44.491Z,42.29
2023-03-27T10:56:58.575Z,41.89
2023-03-27T11:00:11.912Z,41.85
2023-03-27T11:03:28.075Z,38.89
2023-03-27T11:06:34.815Z,40.87
2023-03-27T11:09:43.736Z,41.47
2023-03-27T11:12:54.259Z,42.15
2023-03-27T11:16:08.709Z,42.80
2023-03-27T11:19:26.106Z,39.44
2023-03-27T11:22:34.147Z,40.24
2023-03-27T11:25:43.340Z,41.41
2023-03-27T11:29:02.003Z,43.34
2023-03-27T11:32:17.157Z,46.73
2023-03-27T11:35:24.683Z,48.56
2023-03-27T11:38:32.546Z,49.88
2023-03-27T11:41:35.370Z,47.08
2023-03-27T11:44:38.298Z,44.46
2023-03-27T11:47:54.211Z,42.64
2023-03-27T11:51:02.997Z,43.81
2023-03-27T11:54:23.293Z,40.72
2023-03-27T11:57:27.781Z,41.24
2023-03-27T12:00:36.294Z,40.64
2023-03-27T12:04:08.126Z,40.91
2023-03-27T12:07:34.140Z,39.53
2023-03-27T12:10:42.437Z,37.35
2023-03-27T12:14:17.618Z,38.30
2023-03-27T12:17:51.320Z,39.61
2023-03-27T12:21:07.073Z,40.18
2023-03-27T12:24:22.576Z,38.23
2023-03-27T12:27:37.473Z,38.24
2023-03-27T12:30:53.228Z,39.75
2023-03-27T12:34:02.798Z,39.41
2023-03-27T12:37:10.268Z,41.75
2023-03-27T12:40:29.006Z,43.77
2023-03-27T12:43:33.750Z,43.88
2023-03-27T12:46:39.399Z,45.01
2023-03-27T12:49:48.215Z,45.37
2023-03-27T12:52:53.413Z,46.47
2023-03-27T12:56:26.746Z,43.28
2023-03-27T12:59:33.528Z,45.13
2023-03-27T13:02:57.774Z,46.34
2023-03-27T13:06:26.937Z,45.61
2023-03-27T13:09:47.092Z,46.16
2023-03-27T13:13:24.637Z,45.72
2023-03-27T13:16:40.282Z,47.28
2023-03-27T13:19:54.202Z,50.20
2023-03-27T13:23:16.360Z,54.07
2023-03-27T13:26:40.465Z,57.27
2023-03-27T13:29:43.304Z,58.52
2023-03-27T13:33:10.973Z,58.74
2023-03-27T13:36:19.333Z,60.17
2023-03-27T13:39:24.742Z,60.65
2023-03-27T13:42:35.894Z,62.23
2023-03-27T13:45:47.017Z,62.55
2023-03-27T13:49:18.807Z,63.44
2023-03-27T13:52:54.430Z,64.65
2023-03-27T13:56:23.613Z,66.91
2023-03-27T14:00:02.075Z,68.74
2023-03-27T14:03:52.936Z,70.48
2023-03-27T14:07:45.944Z,69.45
2023-03-27T14:11:09.742Z,63.78
2023-03-27T14:14:27.412Z,63.95
2023-03-27T14:17:42.731Z,61.44
2023-03-27T14:20:47.609Z,60.86
2023-03-27T14:23:58.848Z,59.62
2023-03-27T14:27:02.980Z,61.37
2023-03-27T14:30:15.543Z,63.36
2023-03-27T14:33:20.228Z,62.71
2023-03-27T14:36:25.979Z,62.26
2023-03-27T14:39:31.404Z,62.37
2023-03-27T14:42:34.644Z,62.97
2023-03-27T14:45:40.680Z,63.91
2023-03-27T14:48:46.355Z,63.17
2023-03-27T14:51:50.515Z,63.95
2023-03-27T14:54:57.698Z,63.38
2023-03-27T14:58:11.388Z,63.99
2023-03-27T15:01:17.955Z,62.07
2023-03-27T15:04:21.465Z,62.23
2023-03-27T15:07:28.497Z,62.00
2023-03-27T15:10:32.970Z,61.43
2023-03-27T15:13:36.785Z,61.46
2023-03-27T15:16:39.928Z,62.36
2023-03-27T15:19:48.484Z,61.99
2023-03-27T15:22:55.426Z,63.24
2023-03-27T15:26:04.738Z,63.85
2023-03-27T15:29:13.942Z,63.47
2023-03-27T15:32:21.984Z,64.39
2023-03-27T15:35:31.026Z,65.10
2023-03-27T15:38:36.992Z,66.29
2023-03-27T15:41:44.003Z,67.63
2023-03-27T15:44:46.671Z,66.83
2023-03-27T15:48:00.919Z,66.77
2023-03-27T15:51:06.525Z,66.78
2023-03-27T15:54:25.369Z,67.77
2023-03-27T15:57:30.472Z,68.67
2023-03-27T16:00:33.180Z,70.38
2023-03-27T16:03:36.584Z,70.11
2023-03-27T16:06:41.867Z,69.06
2023-03-27T16:09:51.893Z,70.23
2023-03-27T16:13:01.933Z,71.39
2023-03-27T16:16:07.648Z,69.65
2023-03-27T16:19:13.542Z,68.52
2023-03-27T16:22:20.313Z,67.64
2023-03-27T16:25:22.959Z,68.44
2023-03-27T16:28:29.652Z,69.35
2023-03-27T16:31:32.555Z,69.28
2023-03-27T16:34:35.436Z,69.40
2023-03-27T16:37:38.165Z,69.80
2023-03-27T16:40:41.272Z,69.92
2023-03-27T16:43:46.329Z,70.49
2023-03-27T16:46:49.188Z,71.61
2023-03-27T16:50:07.900Z,71.44
2023-03-27T16:53:13.832Z,71.67
2023-03-27T16:56:17.054Z,70.65
2023-03-27T16:59:21.258Z,70.98
2023-03-27T17:02:25.469Z,70.37
2023-03-27T17:05:33.822Z,69.69
2023-03-27T17:08:37.674Z,70.63
2023-03-27T17:11:40.620Z,71.48
2023-03-27T17:14:44.609Z,70.80
2023-03-27T17:17:47.319Z,70.81
2023-03-27T17:20:49.949Z,71.36
2023-03-27T17:23:54.332Z,71.07
2023-03-27T17:26:56.980Z,71.25
2023-03-27T17:30:01.344Z,70.94
2023-03-27T17:33:05.011Z,72.25
2023-03-27T17:36:12.411Z,72.20
2023-03-27T17:39:15.242Z,72.51
2023-03-27T17:42:18.023Z,73.19
2023-03-27T17:45:24.278Z,73.46
2023-03-27T17:48:27.807Z,73.52
2023-03-27T17:51:30.896Z,74.68
2023-03-27T17:54:35.050Z,75.45
2023-03-27T17:57:39.535Z,74.60
2023-03-27T18:00:44.212Z,74.50
2023-03-27T18:03:47.760Z,72.70
2023-03-27T18:06:50.654Z,72.33
2023-03-27T18:09:53.490Z,73.38
2023-03-27T18:12:56.626Z,72.50
2023-03-27T18:16:02.203Z,71.90
2023-03-27T18:19:06.460Z,72.10
2023-03-27T18:22:09.276Z,71.67
2023-03-27T18:25:12.176Z,72.74
2023-03-27T18:28:14.974Z,73.29
2023-03-27T18:31:20.126Z,74.27
2023-03-27T18:34:22.915Z,74.08
2023-03-27T18:37:25.780Z,75.32
2023-03-27T18:40:28.483Z,75.86
2023-03-27T18:43:31.906Z,76.24
2023-03-27T18:46:36.711Z,74.98
2023-03-27T18:49:39.935Z,74.95
2023-03-27T18:52:42.712Z,74.87
2023-03-27T18:55:49.010Z,71.20
2023-03-27T18:58:51.689Z,73.07
2023-03-27T19:01:55.720Z,73.54
2023-03-27T19:04:58.387Z,74.31
2023-03-27T19:08:01.062Z,75.18
2023-03-27T19:11:03.732Z,76.23
2023-03-27T19:14:06.709Z,76.59
2023-03-27T19:17:14.522Z,75.69
2023-03-27T19:20:17.580Z,75.69
2023-03-27T19:23:20.250Z,76.88
2023-03-27T19:26:22.937Z,77.07
2023-03-27T19:29:25.721Z,77.94
2023-03-27T19:32:29.812Z,78.01
2023-03-27T19:35:32.556Z,78.38
2023-03-27T19:38:37.449Z,77.92
2023-03-27T19:41:41.387Z,78.29
2023-03-27T19:44:44.017Z,78.63
2023-03-27T19:47:48.150Z,79.72
2023-03-27T19:50:51.775Z,79.66
2023-03-27T19:53:55.505Z,79.74
2023-03-27T19:56:58.208Z,78.93
2023-03-27T20:00:00.888Z,79.36
2023-03-27T20:03:05.517Z,80.54
2023-03-27T20:06:13.270Z,81.04
2023-03-27T20:09:16.864Z,81.14
2023-03-27T20:12:19.762Z,79.64
2023-03-27T20:15:22.756Z,79.47
2023-03-27T20:18:32.481Z,80.35
2023-03-27T20:21:37.536Z,80.45
2023-03-27T20:24:40.601Z,80.33
2023-03-27T20:27:43.332Z,80.57
2023-03-27T20:30:46.201Z,80.65
2023-03-27T20:33:52.345Z,80.27
2023-03-27T20:36:58.830Z,80.42
2023-03-27T20:40:06.282Z,80.90
2023-03-27T20:43:09.523Z,81.23
2023-03-27T20:46:14.041Z,78.67
2023-03-27T20:52:29.765Z,76.77
2023-03-27T20:55:34.639Z,76.09
2023-03-27T20:58:42.215Z,75.43
2023-03-27T21:01:45.191Z,76.72
2023-03-27T21:04:49.403Z,75.17
2023-03-27T21:07:52.599Z,75.62
2023-03-27T21:10:55.534Z,74.73
2023-03-27T21:13:58.237Z,74.53
2023-03-27T21:17:01.016Z,74.39
2023-03-27T21:20:06.019Z,75.03
2023-03-27T21:23:08.770Z,74.26
2023-03-27T21:26:11.396Z,76.22
2023-03-27T21:29:15.368Z,76.43
2023-03-27T21:32:18.071Z,76.23
2023-03-27T21:35:22.874Z,75.68
2023-03-27T21:38:25.584Z,77.29
2023-03-27T21:41:28.333Z,76.95
2023-03-27T21:44:31.181Z,76.81
2023-03-27T21:47:46.701Z,76.65
2023-03-27T21:50:51.580Z,77.17
2023-03-27T21:53:54.321Z,76.60
2023-03-27T21:56:57.019Z,77.58
2023-03-27T21:59:59.755Z,77.43
2023-03-27T22:03:02.951Z,77.86
2023-03-27T22:06:12.220Z,78.06
2023-03-27T22:09:16.793Z,78.44
2023-03-27T22:12:19.532Z,78.92
2023-03-27T22:15:22.552Z,79.02
2023-03-27T22:18:25.525Z,79.54
2023-03-27T22:21:30.974Z,79.22
2023-03-27T22:24:33.625Z,79.78
2023-03-27T22:27:36.836Z,80.22
2023-03-27T22:30:39.477Z,80.32
2023-03-27T22:33:42.187Z,80.02
2023-03-27T22:36:46.404Z,80.32
2023-03-27T22:39:49.033Z,80.37
2023-03-27T22:42:51.724Z,80.42
2023-03-27T22:45:54.394Z,80.08
2023-03-27T22:48:58.318Z,80.01
2023-03-27T22:52:02.368Z,79.04
2023-03-27T22:55:05.772Z,77.61
2023-03-27T22:58:08.449Z,78.16
2023-03-27T23:01:11.582Z,77.16
2023-03-27T23:04:14.571Z,75.93
2023-03-27T23:07:18.642Z,76.12
2023-03-27T23:10:21.360Z,75.31
2023-03-27T23:13:24.115Z,75.43
2023-03-27T23:16:27.223Z,75.83
2023-03-27T23:19:30.013Z,75.75
2023-03-27T23:22:34.029Z,76.28
2023-03-27T23:25:36.658Z,76.47
2023-03-27T23:28:41.315Z,76.80
2023-03-27T23:31:44.030Z,76.83
2023-03-27T23:34:46.711Z,77.16
2023-03-27T23:37:50.727Z,76.79
2023-03-27T23:40:57.537Z,76.88
2023-03-27T23:44:00.144Z,76.78
2023-03-27T23:47:03.083Z,76.60
2023-03-27T23:50:06.570Z,74.23
2023-03-27T23:53:11.322Z,74.58
2023-03-27T23:56:14.180Z,74.10
2023-03-27T23:59:16.824Z,74.55
